createdAt,value
2019-05-12T00:00:24.930Z,73.30
2019-05-12T00:04:30.884Z,71.60
2019-05-12T00:08:38.161Z,73.10
2019-05-12T00:12:48.291Z,71.30
2019-05-12T00:16:54.496Z,72.00
2019-05-12T00:21:02.221Z,73.00
2019-05-12T00:25:08.943Z,74.80
2019-05-12T00:29:18.349Z,73.40
2019-05-12T00:33:23.607Z,74.60
2019-05-12T00:37:29.340Z,74.00
2019-05-12T00:41:38.715Z,74.80
2019-05-12T00:45:44.056Z,73.70
2019-05-12T00:49:50.394Z,74.40
2019-05-12T00:53:58.034Z,76.20
2019-05-12T00:58:05.135Z,73.80
2019-05-12T01:02:12.681Z,74.70
2019-05-12T01:06:18.924Z,74.50
2019-05-12T01:10:24.663Z,74.80
2019-05-12T01:14:30.339Z,75.50
2019-05-12T01:18:38.420Z,75.40
2019-05-12T01:22:43.305Z,77.00
2019-05-12T01:26:49.044Z,74.40
2019-05-12T01:30:58.223Z,75.30
2019-05-12T01:35:04.495Z,76.80
2019-05-12T01:39:10.143Z,77.20
2019-05-12T01:43:18.707Z,75.40
2019-05-12T01:47:23.338Z,75.50
2019-05-12T01:51:29.036Z,74.50
2019-05-12T01:55:34.755Z,74.90
2019-05-12T01:59:43.846Z,74.80
2019-05-12T02:03:49.566Z,75.90
2019-05-12T02:07:58.332Z,77.00
2019-05-12T02:12:03.901Z,76.20
2019-05-12T02:16:09.534Z,76.00
2019-05-12T02:20:18.068Z,74.90
2019-05-12T02:24:27.355Z,77.50
2019-05-12T02:28:31.097Z,75.00
2019-05-12T02:32:48.338Z,75.50
2019-05-12T02:36:47.662Z,76.90
2019-05-12T02:40:55.367Z,77.20
2019-05-12T02:45:01.646Z,74.10
2019-05-12T02:49:07.422Z,74.50
2019-05-12T02:53:14.437Z,73.80
2019-05-12T02:57:20.321Z,74.50
2019-05-12T03:01:25.958Z,77.30
2019-05-12T03:05:34.864Z,74.20
2019-05-12T03:09:44.560Z,77.20
2019-05-12T03:13:50.306Z,76.00
2019-05-12T03:17:57.714Z,75.50
2019-05-12T03:22:05.093Z,74.10
2019-05-12T03:26:10.894Z,75.30
2019-05-12T03:30:19.185Z,76.50
2019-05-12T03:34:29.442Z,77.00
2019-05-12T03:38:36.037Z,76.40
2019-05-12T03:42:44.505Z,76.50
2019-05-12T03:46:50.344Z,76.50
2019-05-12T03:50:56.020Z,74.60
2019-05-12T03:55:26.269Z,75.20
2019-05-12T03:59:14.937Z,73.50
2019-05-12T04:03:24.431Z,75.80
2019-05-12T04:07:28.345Z,75.40
2019-05-12T04:11:35.692Z,74.90
2019-05-12T04:15:41.298Z,73.30
2019-05-12T04:19:47.983Z,76.50
2019-05-12T04:23:54.866Z,73.80
2019-05-12T04:28:00.990Z,76.40
2019-05-12T04:32:06.709Z,74.30
2019-05-12T04:36:14.770Z,75.10
2019-05-12T04:40:19.798Z,74.30
2019-05-12T04:44:25.777Z,74.20
2019-05-12T04:48:35.395Z,74.60
2019-05-12T04:52:40.288Z,72.40
2019-05-12T04:56:46.846Z,74.50
2019-05-12T05:00:54.087Z,73.60
2019-05-12T05:05:00.142Z,75.70
2019-05-12T05:09:14.227Z,73.20
2019-05-12T05:13:18.795Z,75.30
2019-05-12T05:17:24.654Z,74.40
2019-05-12T05:21:30.239Z,75.30
2019-05-12T05:25:36.057Z,76.00
2019-05-12T05:29:43.792Z,72.60
2019-05-12T05:33:50.243Z,73.30
2019-05-12T05:37:55.896Z,73.70
2019-05-12T05:42:01.649Z,73.20
2019-05-12T05:46:08.639Z,73.90
2019-05-12T05:50:18.409Z,76.80
2019-05-12T05:54:22.791Z,73.50
2019-05-12T05:58:29.030Z,74.90
2019-05-12T06:02:40.482Z,75.80
2019-05-12T06:06:50.904Z,75.10
2019-05-12T06:11:04.774Z,74.70
2019-05-12T06:15:13.528Z,75.60
2019-05-12T06:19:23.152Z,74.70
2019-05-12T06:23:29.083Z,75.20
2019-05-12T06:27:35.958Z,72.60
2019-05-12T06:31:44.175Z,75.00
2019-05-12T06:35:50.274Z,75.70
2019-05-12T06:40:00.375Z,73.80
2019-05-12T06:44:03.829Z,72.70
2019-05-12T06:48:09.523Z,70.90
2019-05-12T06:52:16.939Z,71.70
2019-05-12T06:56:23.684Z,72.30
2019-05-12T07:00:32.052Z,70.70
2019-05-12T07:04:41.260Z,72.80
2019-05-12T07:08:45.137Z,72.50
2019-05-12T07:12:58.952Z,72.30
2019-05-12T07:17:05.847Z,73.20
2019-05-12T07:21:15.501Z,71.80
2019-05-12T07:25:21.951Z,72.00
2019-05-12T07:29:24.782Z,75.90
2019-05-12T07:33:32.852Z,71.40
2019-05-12T07:37:39.410Z,74.70
2019-05-12T07:41:51.037Z,70.90
2019-05-12T07:45:53.889Z,70.50
2019-05-12T07:49:59.813Z,70.80
2019-05-12T07:54:05.367Z,69.50
2019-05-12T07:58:15.581Z,70.40
2019-05-12T08:02:23.146Z,68.30
2019-05-12T08:06:25.798Z,70.00
2019-05-12T08:10:31.381Z,71.10
2019-05-12T08:14:37.065Z,70.50
2019-05-12T08:18:44.493Z,70.60
2019-05-12T08:22:50.233Z,70.90
2019-05-12T08:27:02.141Z,70.10
2019-05-12T08:31:04.201Z,71.10
2019-05-12T08:35:09.921Z,70.20
2019-05-12T08:39:21.334Z,69.70
2019-05-12T08:43:24.056Z,69.80
2019-05-12T08:47:35.609Z,70.20
2019-05-12T08:51:37.243Z,69.30
2019-05-12T08:55:43.879Z,66.60
2019-05-12T08:59:54.658Z,67.70
2019-05-12T09:04:00.389Z,69.40
2019-05-12T09:08:04.089Z,68.90
2019-05-12T09:12:09.763Z,67.40
2019-05-12T09:16:15.489Z,69.10
2019-05-12T09:20:21.166Z,69.00
2019-05-12T09:24:27.468Z,68.90
2019-05-12T09:28:46.433Z,68.70
2019-05-12T09:32:45.435Z,69.50
2019-05-12T09:36:51.923Z,68.80
2019-05-12T09:41:00.703Z,68.40
2019-05-12T09:45:09.971Z,68.50
2019-05-12T09:49:14.253Z,65.90
2019-05-12T09:53:19.676Z,67.50
2019-05-12T09:57:25.337Z,67.40
2019-05-12T10:01:35.222Z,66.20
2019-05-12T10:05:41.192Z,66.80
2019-05-12T10:09:49.268Z,65.40
2019-05-12T10:13:54.404Z,66.10
2019-05-12T10:18:06.395Z,67.70
2019-05-12T10:22:08.462Z,66.90
2019-05-12T10:26:14.822Z,67.40
2019-05-12T10:30:20.949Z,68.80
2019-05-12T10:34:29.209Z,69.40
2019-05-12T10:38:34.371Z,69.00
2019-05-12T10:42:45.997Z,68.70
2019-05-12T10:46:50.591Z,66.20
2019-05-12T10:50:56.201Z,70.30
2019-05-12T10:55:01.906Z,68.60
2019-05-12T10:59:07.652Z,68.30
2019-05-12T11:03:15.482Z,68.30
2019-05-12T11:07:22.991Z,69.10
2019-05-12T11:11:33.016Z,67.60
2019-05-12T11:15:39.434Z,67.40
2019-05-12T11:19:49.307Z,67.30
2019-05-12T11:23:51.292Z,68.00
2019-05-12T11:27:57.114Z,68.00
2019-05-12T11:32:03.121Z,66.90
2019-05-12T11:36:09.709Z,66.60
2019-05-12T11:40:15.379Z,66.80
2019-05-12T11:44:23.131Z,67.60
2019-05-12T11:48:30.476Z,67.60
2019-05-12T11:52:36.215Z,66.70
2019-05-12T11:56:46.449Z,65.80
2019-05-12T12:00:53.210Z,67.30
2019-05-12T12:04:58.530Z,66.20
2019-05-12T12:09:09.191Z,65.60
2019-05-12T12:13:14.188Z,68.20
2019-05-12T12:17:22.805Z,66.50
2019-05-12T12:21:27.216Z,69.00
2019-05-12T12:25:34.115Z,70.40
2019-05-12T12:29:40.305Z,70.20
2019-05-12T12:33:47.152Z,71.20
2019-05-12T12:37:54.105Z,68.90
2019-05-12T12:42:00.819Z,68.90
2019-05-12T12:46:17.931Z,70.10
2019-05-12T12:50:26.318Z,69.00
2019-05-12T12:54:28.775Z,71.50
2019-05-12T12:58:34.679Z,71.90
2019-05-12T13:02:45.205Z,69.90
2019-05-12T13:06:48.849Z,70.20
2019-05-12T13:10:55.673Z,72.50
2019-05-12T13:15:03.783Z,72.30
2019-05-12T13:19:16.758Z,71.70
2019-05-12T13:23:16.610Z,70.80
2019-05-12T13:27:27.143Z,72.30
2019-05-12T13:31:29.663Z,72.50
2019-05-12T13:35:35.409Z,72.40
2019-05-12T13:39:41.083Z,72.50
2019-05-12T13:43:54.495Z,72.20
2019-05-12T13:47:54.054Z,73.40
2019-05-12T13:51:59.760Z,72.90
2019-05-12T13:56:05.469Z,72.40
2019-05-12T14:00:13.811Z,73.20
2019-05-12T14:04:22.161Z,72.80
2019-05-12T14:08:26.554Z,72.70
2019-05-12T14:12:35.093Z,74.10
2019-05-12T14:16:46.250Z,75.00
2019-05-12T14:20:51.004Z,72.70
2019-05-12T14:24:55.664Z,73.80
2019-05-12T14:29:03.799Z,74.40
2019-05-12T14:33:09.849Z,72.50
2019-05-12T14:37:17.554Z,72.90
2019-05-12T14:41:26.556Z,75.00
2019-05-12T14:45:33.287Z,75.30
2019-05-12T14:49:40.947Z,74.20
2019-05-12T14:53:48.104Z,74.10
2019-05-12T14:57:53.895Z,75.50
2019-05-12T15:02:00.021Z,75.10
2019-05-12T15:06:07.758Z,74.30
2019-05-12T15:10:14.247Z,74.80
2019-05-12T15:14:24.647Z,74.40
2019-05-12T15:18:29.423Z,75.30
2019-05-12T15:22:35.055Z,75.00
2019-05-12T15:26:40.697Z,76.10
2019-05-12T15:30:46.427Z,75.20
2019-05-12T15:34:52.029Z,74.70
2019-05-12T15:38:58.979Z,74.80
2019-05-12T15:43:05.555Z,74.50
2019-05-12T15:47:14.951Z,74.40
2019-05-12T15:51:20.720Z,74.30
2019-05-12T15:55:32.673Z,76.40
2019-05-12T15:59:34.506Z,75.90
2019-05-12T16:03:40.616Z,74.90
2019-05-12T16:07:47.756Z,74.80
2019-05-12T16:11:53.515Z,74.30
2019-05-12T16:16:05.876Z,75.30
2019-05-12T16:20:06.921Z,74.90
2019-05-12T16:24:15.321Z,75.60
2019-05-12T16:28:23.598Z,73.90
2019-05-12T16:32:32.517Z,74.10
2019-05-12T16:36:34.633Z,74.50
2019-05-12T16:40:45.570Z,75.20
2019-05-12T16:44:48.626Z,75.00
2019-05-12T16:48:56.921Z,75.20
2019-05-12T16:53:01.621Z,75.20
2019-05-12T16:57:11.776Z,75.40
2019-05-12T17:01:19.346Z,74.80
2019-05-12T17:05:24.085Z,74.70
2019-05-12T17:09:30.123Z,74.20
2019-05-12T17:13:35.799Z,73.80
2019-05-12T17:17:41.578Z,74.90
2019-05-12T17:21:54.819Z,75.30
2019-05-12T17:25:56.991Z,75.00
2019-05-12T17:30:04.466Z,75.20
2019-05-12T17:34:11.398Z,76.00
2019-05-12T17:38:20.049Z,75.80
2019-05-12T17:42:27.023Z,74.80
2019-05-12T17:46:37.931Z,76.00
2019-05-12T17:50:46.603Z,76.30
2019-05-12T17:54:50.261Z,75.90
2019-05-12T17:58:57.712Z,75.40
2019-05-12T18:03:17.476Z,75.00
2019-05-12T18:07:14.455Z,75.00
2019-05-12T18:11:18.773Z,76.40
2019-05-12T18:15:33.604Z,76.50
2019-05-12T18:19:35.408Z,76.10
2019-05-12T18:23:43.545Z,75.00
2019-05-12T18:27:50.954Z,76.10
2019-05-12T18:31:58.142Z,76.00
2019-05-12T18:36:04.395Z,77.50
2019-05-12T18:40:10.418Z,77.70
2019-05-12T18:44:26.253Z,76.40
2019-05-12T18:48:25.255Z,77.30
2019-05-12T18:52:39.345Z,77.70
2019-05-12T18:56:40.329Z,78.50
2019-05-12T19:00:47.730Z,77.70
2019-05-12T19:04:54.495Z,77.70
2019-05-12T19:09:04.258Z,77.90
2019-05-12T19:13:11.653Z,78.00
2019-05-12T19:17:20.616Z,76.50
2019-05-12T19:21:28.297Z,78.00
2019-05-12T19:25:40.248Z,76.50
2019-05-12T19:29:46.655Z,79.20
2019-05-12T19:33:57.644Z,78.30
2019-05-12T19:37:57.485Z,79.30
2019-05-12T19:42:10.584Z,79.50
2019-05-12T19:46:14.164Z,77.30
2019-05-12T19:50:20.095Z,78.30
2019-05-12T19:54:30.178Z,79.00
2019-05-12T19:58:36.921Z,78.50
2019-05-12T20:02:42.612Z,78.30
2019-05-12T20:06:49.531Z,77.60
2019-05-12T20:10:57.931Z,78.10
2019-05-12T20:15:04.172Z,78.00
2019-05-12T20:19:10.032Z,77.30
2019-05-12T20:23:16.758Z,78.30
2019-05-12T20:27:24.658Z,78.00
2019-05-12T20:31:35.441Z,79.30
2019-05-12T20:35:39.169Z,78.50
2019-05-12T20:39:51.153Z,78.40
2019-05-12T20:43:56.374Z,79.10
2019-05-12T20:48:04.065Z,78.00
2019-05-12T20:52:09.879Z,79.80
2019-05-12T20:56:22.048Z,78.30
2019-05-12T21:00:27.054Z,78.40
2019-05-12T21:04:37.559Z,78.80
2019-05-12T21:08:46.617Z,77.90
2019-05-12T21:12:50.052Z,78.00
2019-05-12T21:16:55.368Z,77.30
2019-05-12T21:21:03.535Z,77.80
2019-05-12T21:25:12.831Z,78.30
2019-05-12T21:29:25.533Z,77.30
2019-05-12T21:33:31.304Z,77.80
2019-05-12T21:37:45.402Z,77.80
2019-05-12T21:41:47.333Z,78.00
2019-05-12T21:45:53.711Z,77.40
2019-05-12T21:49:59.798Z,77.40
2019-05-12T21:54:06.575Z,78.10
2019-05-12T21:58:15.335Z,78.30
2019-05-12T22:02:28.981Z,78.70
2019-05-12T22:06:28.637Z,78.10
2019-05-12T22:10:34.498Z,78.40
2019-05-12T22:14:41.008Z,78.50
2019-05-12T22:18:56.068Z,80.30
2019-05-12T22:23:06.187Z,78.40
2019-05-12T22:27:05.107Z,78.40
2019-05-12T22:31:13.599Z,77.80
2019-05-12T22:35:21.930Z,78.70
2019-05-12T22:39:25.732Z,78.40
2019-05-12T22:43:36.376Z,79.00
2019-05-12T22:47:38.877Z,77.50
2019-05-12T22:51:47.098Z,77.20
2019-05-12T22:55:53.435Z,78.00
2019-05-12T22:59:59.203Z,77.60
2019-05-12T23:04:05.048Z,78.20
2019-05-12T23:08:10.758Z,77.50
2019-05-12T23:12:19.999Z,76.70
2019-05-12T23:16:26.165Z,78.30
2019-05-12T23:20:32.759Z,78.60
2019-05-12T23:24:40.710Z,79.70
2019-05-12T23:28:50.351Z,78.20
2019-05-12T23:32:55.129Z,78.40
2019-05-12T23:37:03.624Z,78.90
2019-05-12T23:41:08.575Z,78.30
2019-05-12T23:45:14.236Z,77.70
2019-05-12T23:49:19.927Z,78.90
2019-05-12T23:53:25.560Z,78.20
2019-05-12T23:57:33.723Z,78.10
